UAE9978 EDDF-OMDW
Flight info
| Callsign | UAE9978 |
|---|---|
| Flight time | N/A |
| Altitude | 35000 |
| Route | CINDY8S/18 CINDY Z74 LAMPU DCT NOMBO Y161 MAH DCT VAVOR DCT RADIZ DCT GORPA DCT DEVUL DCT REMSO DCT MEDUX UM867 KOGAT DCT ERANA DCT TSL DCT MES UL609 RDS/N0484F370 DCT VANZA DCT LAKTO L560 SERMA L550 KARIK B411 DEESA Y415 LOTOK P559 NALPO/N0495F350 P559 KIVUS G666 ELOVU |
| Aircraft | B77L/H-SDE1E2E3FGHIJ2J3J4J5M1RWXY/LB1D1 |
Departure
| Time | N/A |
|---|---|
| Airport | Frankfurt Main Airport (EDDF) |
Arrival
| Time | 2026-04-26 16:24 |
|---|---|
| Airport | Al Maktoum International Airport (OMDW) |
| Time | Latitude | Longitude | Altitude | Speed | Heading |
|---|---|---|---|---|---|
| 2026-04-26 12:05 | 42.25671 | 20.82395 | 35119 ft | 509 kts | 131° |
| 2026-04-26 12:05 | 42.21115 | 20.89732 | 35135 ft | 511 kts | 131° |
| 2026-04-26 12:06 | 42.16559 | 20.97050 | 35145 ft | 510 kts | 131° |
| 2026-04-26 12:06 | 42.11961 | 21.04403 | 35133 ft | 510 kts | 133° |
| 2026-04-26 12:07 | 42.06907 | 21.11095 | 35131 ft | 510 kts | 138° |
| 2026-04-26 12:07 | 42.01759 | 21.17629 | 35117 ft | 512 kts | 138° |
| 2026-04-26 12:08 | 41.96589 | 21.24177 | 35115 ft | 511 kts | 138° |
| 2026-04-26 12:08 | 41.91433 | 21.30692 | 35118 ft | 511 kts | 138° |
| 2026-04-26 12:09 | 41.86259 | 21.37216 | 35118 ft | 511 kts | 138° |
| 2026-04-26 12:09 | 41.81333 | 21.43414 | 35127 ft | 510 kts | 138° |
| 2026-04-26 12:10 | 41.76183 | 21.49880 | 35139 ft | 510 kts | 138° |
| 2026-04-26 12:10 | 41.71003 | 21.56368 | 35136 ft | 511 kts | 138° |
| 2026-04-26 12:11 | 41.65786 | 21.62887 | 35119 ft | 513 kts | 138° |
| 2026-04-26 12:11 | 41.60589 | 21.69367 | 35101 ft | 511 kts | 139° |
| 2026-04-26 12:12 | 41.55416 | 21.75801 | 35088 ft | 513 kts | 139° |
| 2026-04-26 12:12 | 41.50194 | 21.82281 | 35089 ft | 512 kts | 139° |
| 2026-04-26 12:13 | 41.44974 | 21.88744 | 35085 ft | 512 kts | 139° |
| 2026-04-26 12:13 | 41.39738 | 21.95212 | 35088 ft | 514 kts | 139° |
| 2026-04-26 12:14 | 41.34503 | 22.01665 | 35083 ft | 514 kts | 139° |
| 2026-04-26 12:14 | 41.29248 | 22.08127 | 35093 ft | 514 kts | 139° |
| 2026-04-26 12:15 | 41.24009 | 22.14553 | 35101 ft | 513 kts | 139° |
| 2026-04-26 12:15 | 41.18768 | 22.20969 | 35103 ft | 513 kts | 139° |
| 2026-04-26 12:16 | 41.13425 | 22.27264 | 35114 ft | 513 kts | 142° |
| 2026-04-26 12:16 | 41.07891 | 22.33150 | 35097 ft | 513 kts | 142° |
| 2026-04-26 12:17 | 41.02314 | 22.39088 | 35083 ft | 514 kts | 142° |
| 2026-04-26 12:17 | 40.96777 | 22.44995 | 35065 ft | 513 kts | 142° |
| 2026-04-26 12:18 | 40.91224 | 22.50918 | 35032 ft | 513 kts | 142° |
| 2026-04-26 12:18 | 40.85644 | 22.56863 | 35019 ft | 512 kts | 142° |
| 2026-04-26 12:19 | 40.80114 | 22.62745 | 35020 ft | 512 kts | 142° |
| 2026-04-26 12:19 | 40.74559 | 22.68643 | 35008 ft | 513 kts | 142° |
| 2026-04-26 12:20 | 40.69007 | 22.74526 | 35006 ft | 513 kts | 142° |
| 2026-04-26 12:20 | 40.63428 | 22.80424 | 35005 ft | 512 kts | 142° |
| 2026-04-26 12:21 | 40.57886 | 22.86273 | 35003 ft | 512 kts | 142° |
| 2026-04-26 12:21 | 40.52321 | 22.92131 | 35004 ft | 512 kts | 142° |
| 2026-04-26 12:22 | 40.46791 | 22.97946 | 35002 ft | 511 kts | 141° |
| 2026-04-26 12:22 | 40.41707 | 23.04561 | 35013 ft | 514 kts | 134° |
| 2026-04-26 12:23 | 40.36833 | 23.11328 | 35016 ft | 513 kts | 133° |
| 2026-04-26 12:23 | 40.31935 | 23.18104 | 35017 ft | 512 kts | 133° |
| 2026-04-26 12:24 | 40.27027 | 23.24872 | 35015 ft | 512 kts | 133° |
| 2026-04-26 12:24 | 40.22147 | 23.31582 | 35008 ft | 511 kts | 133° |
| 2026-04-26 12:25 | 40.14805 | 23.41648 | 35012 ft | 512 kts | 133° |
| 2026-04-26 12:25 | 40.09899 | 23.48353 | 35016 ft | 511 kts | 133° |
| 2026-04-26 12:26 | 40.04975 | 23.55067 | 35021 ft | 511 kts | 133° |
| 2026-04-26 12:26 | 40.00091 | 23.61713 | 35016 ft | 510 kts | 133° |
| 2026-04-26 12:27 | 39.95159 | 23.68409 | 35008 ft | 510 kts | 134° |
| 2026-04-26 12:27 | 39.90243 | 23.75067 | 34999 ft | 511 kts | 133° |
| 2026-04-26 12:28 | 39.85334 | 23.81702 | 34997 ft | 512 kts | 133° |
| 2026-04-26 12:28 | 39.80402 | 23.88354 | 34992 ft | 510 kts | 133° |
| 2026-04-26 12:29 | 39.75466 | 23.94996 | 34999 ft | 510 kts | 133° |
| 2026-04-26 12:30 | 39.68084 | 24.04902 | 34997 ft | 510 kts | 133° |
| 2026-04-26 12:30 | 39.63185 | 24.11459 | 35007 ft | 509 kts | 133° |
| 2026-04-26 12:31 | 39.55770 | 24.21354 | 35012 ft | 508 kts | 133° |
| 2026-04-26 12:31 | 39.50864 | 24.27884 | 35013 ft | 507 kts | 133° |
| 2026-04-26 12:32 | 39.45935 | 24.34432 | 35014 ft | 507 kts | 133° |
| 2026-04-26 12:33 | 39.38562 | 24.44197 | 35014 ft | 507 kts | 133° |
| 2026-04-26 12:33 | 39.33635 | 24.50707 | 35015 ft | 507 kts | 132° |
| 2026-04-26 12:34 | 39.28727 | 24.57177 | 35015 ft | 505 kts | 132° |
| 2026-04-26 12:34 | 39.23825 | 24.63625 | 35015 ft | 505 kts | 132° |
| 2026-04-26 12:35 | 39.18887 | 24.70106 | 35015 ft | 506 kts | 133° |
| 2026-04-26 12:35 | 39.13952 | 24.76570 | 35015 ft | 505 kts | 133° |
| 2026-04-26 12:36 | 39.09056 | 24.82969 | 35015 ft | 505 kts | 133° |
| 2026-04-26 12:36 | 39.04132 | 24.89392 | 35016 ft | 505 kts | 133° |
| 2026-04-26 12:37 | 38.99178 | 24.95839 | 35015 ft | 505 kts | 133° |
| 2026-04-26 12:37 | 38.94247 | 25.02245 | 35015 ft | 504 kts | 133° |
| 2026-04-26 12:38 | 38.89334 | 25.08612 | 35012 ft | 504 kts | 132° |
| 2026-04-26 12:38 | 38.84411 | 25.14979 | 35002 ft | 503 kts | 132° |
| 2026-04-26 12:39 | 38.79489 | 25.21332 | 35000 ft | 504 kts | 132° |
| 2026-04-26 12:39 | 38.74532 | 25.27717 | 35002 ft | 503 kts | 132° |
| 2026-04-26 12:40 | 38.69576 | 25.34089 | 35232 ft | 512 kts | 132° |
| 2026-04-26 12:40 | 38.67088 | 25.37280 | 35999 ft | 508 kts | 132° |
| 2026-04-26 12:40 | 38.64632 | 25.40428 | 36822 ft | 503 kts | 132° |
| 2026-04-26 12:40 | 38.62143 | 25.43616 | 36995 ft | 505 kts | 132° |
| 2026-04-26 12:41 | 38.59660 | 25.46792 | 36999 ft | 500 kts | 132° |
| 2026-04-26 12:41 | 38.54786 | 25.53017 | 37005 ft | 498 kts | 132° |
| 2026-04-26 12:42 | 38.49880 | 25.59272 | 36997 ft | 498 kts | 132° |
| 2026-04-26 12:42 | 38.45002 | 25.65477 | 37000 ft | 497 kts | 133° |
| 2026-04-26 12:43 | 38.40084 | 25.71722 | 37000 ft | 498 kts | 133° |
| 2026-04-26 12:43 | 38.35183 | 25.77931 | 36997 ft | 497 kts | 133° |
| 2026-04-26 12:44 | 38.30271 | 25.84142 | 36656 ft | 498 kts | 132° |
| 2026-04-26 12:44 | 38.27829 | 25.87224 | 36949 ft | 497 kts | 132° |
| 2026-04-26 12:44 | 38.25336 | 25.90338 | 36985 ft | 502 kts | 134° |
| 2026-04-26 12:45 | 38.20140 | 25.96176 | 36986 ft | 499 kts | 136° |
| 2026-04-26 12:45 | 38.14913 | 26.01969 | 36985 ft | 500 kts | 136° |
| 2026-04-26 12:46 | 38.09672 | 26.07765 | 36969 ft | 499 kts | 136° |
| 2026-04-26 12:46 | 38.04418 | 26.13567 | 36967 ft | 500 kts | 136° |
| 2026-04-26 12:47 | 37.99183 | 26.19334 | 36966 ft | 497 kts | 136° |
| 2026-04-26 12:47 | 37.93976 | 26.25062 | 36977 ft | 499 kts | 136° |
| 2026-04-26 12:48 | 37.88744 | 26.30804 | 36954 ft | 499 kts | 136° |
| 2026-04-26 12:48 | 37.83486 | 26.36557 | 36964 ft | 498 kts | 136° |
| 2026-04-26 12:49 | 37.78239 | 26.42276 | 36948 ft | 499 kts | 136° |
| 2026-04-26 12:49 | 37.72997 | 26.47977 | 36957 ft | 497 kts | 136° |
| 2026-04-26 12:50 | 37.67762 | 26.53663 | 36950 ft | 498 kts | 136° |
| 2026-04-26 12:50 | 37.62503 | 26.59378 | 36958 ft | 497 kts | 135° |
| 2026-04-26 12:51 | 37.57268 | 26.65058 | 36952 ft | 497 kts | 136° |
| 2026-04-26 12:51 | 37.52035 | 26.70724 | 36938 ft | 497 kts | 136° |
| 2026-04-26 12:52 | 37.46793 | 26.76389 | 36945 ft | 497 kts | 136° |
| 2026-04-26 12:52 | 37.41575 | 26.82017 | 36930 ft | 496 kts | 136° |
| 2026-04-26 12:53 | 37.36444 | 26.87814 | 36937 ft | 494 kts | 133° |
| 2026-04-26 12:53 | 37.31499 | 26.93789 | 36927 ft | 494 kts | 133° |
| 2026-04-26 12:54 | 37.26527 | 26.99759 | 36926 ft | 493 kts | 133° |
| 2026-04-26 12:54 | 37.21575 | 27.05678 | 36922 ft | 493 kts | 133° |
| 2026-04-26 12:55 | 37.16603 | 27.11598 | 36922 ft | 493 kts | 133° |
| 2026-04-26 12:55 | 37.11639 | 27.17493 | 36930 ft | 491 kts | 133° |
| 2026-04-26 12:56 | 37.06710 | 27.23334 | 36936 ft | 492 kts | 133° |
| 2026-04-26 12:56 | 37.01713 | 27.29241 | 36935 ft | 491 kts | 134° |
| 2026-04-26 12:57 | 36.96773 | 27.35070 | 36937 ft | 491 kts | 133° |
| 2026-04-26 12:57 | 36.91782 | 27.40947 | 36926 ft | 492 kts | 134° |
| 2026-04-26 12:58 | 36.84343 | 27.49686 | 36923 ft | 491 kts | 134° |
| 2026-04-26 12:58 | 36.79368 | 27.55517 | 36921 ft | 493 kts | 134° |
| 2026-04-26 12:59 | 36.74354 | 27.61383 | 36928 ft | 493 kts | 134° |
| 2026-04-26 12:59 | 36.69378 | 27.67193 | 36929 ft | 493 kts | 135° |
| 2026-04-26 13:00 | 36.64351 | 27.73052 | 36931 ft | 493 kts | 135° |
| 2026-04-26 13:00 | 36.59360 | 27.78858 | 36924 ft | 495 kts | 135° |
| 2026-04-26 13:01 | 36.54337 | 27.84690 | 36938 ft | 493 kts | 135° |
| 2026-04-26 13:01 | 36.49306 | 27.90520 | 36913 ft | 493 kts | 135° |
| 2026-04-26 13:02 | 36.44322 | 27.96285 | 36925 ft | 495 kts | 135° |
| 2026-04-26 13:02 | 36.39264 | 28.02125 | 36925 ft | 495 kts | 135° |
| 2026-04-26 13:03 | 36.34241 | 28.07915 | 36921 ft | 495 kts | 136° |
| 2026-04-26 13:03 | 36.29363 | 28.13883 | 36931 ft | 494 kts | 133° |
| 2026-04-26 13:04 | 36.24522 | 28.19954 | 36916 ft | 494 kts | 133° |
| 2026-04-26 13:04 | 36.19698 | 28.25973 | 36919 ft | 495 kts | 133° |
| 2026-04-26 13:05 | 36.14852 | 28.31998 | 36918 ft | 495 kts | 134° |
| 2026-04-26 13:05 | 36.09988 | 28.38028 | 36936 ft | 495 kts | 134° |
| 2026-04-26 13:06 | 36.05124 | 28.44044 | 36930 ft | 496 kts | 134° |
| 2026-04-26 13:06 | 36.00239 | 28.50073 | 36900 ft | 493 kts | 134° |
| 2026-04-26 13:07 | 35.95393 | 28.56042 | 36932 ft | 498 kts | 134° |
| 2026-04-26 13:07 | 35.90483 | 28.62078 | 36931 ft | 495 kts | 134° |
| 2026-04-26 13:08 | 35.85625 | 28.68039 | 36907 ft | 495 kts | 135° |
| 2026-04-26 13:08 | 35.80741 | 28.74021 | 36926 ft | 497 kts | 135° |
| 2026-04-26 13:09 | 35.75821 | 28.80036 | 36911 ft | 496 kts | 135° |
| 2026-04-26 13:09 | 35.70909 | 28.86029 | 36920 ft | 499 kts | 135° |
| 2026-04-26 13:10 | 35.66023 | 28.91981 | 36902 ft | 497 kts | 135° |
| 2026-04-26 13:10 | 35.61085 | 28.97985 | 36912 ft | 498 kts | 135° |
| 2026-04-26 13:11 | 35.56181 | 29.03936 | 36920 ft | 496 kts | 135° |
| 2026-04-26 13:11 | 35.51269 | 29.09886 | 36915 ft | 498 kts | 136° |
| 2026-04-26 13:12 | 35.46314 | 29.15876 | 36926 ft | 500 kts | 136° |
| 2026-04-26 13:12 | 35.41385 | 29.21826 | 36908 ft | 498 kts | 136° |
| 2026-04-26 13:13 | 35.36447 | 29.27775 | 36914 ft | 498 kts | 136° |
| 2026-04-26 13:13 | 35.31486 | 29.33740 | 36903 ft | 498 kts | 136° |
| 2026-04-26 13:14 | 35.26575 | 29.39635 | 36914 ft | 499 kts | 136° |
| 2026-04-26 13:14 | 35.21611 | 29.45584 | 36906 ft | 499 kts | 136° |
| 2026-04-26 13:15 | 35.16642 | 29.51526 | 36876 ft | 503 kts | 136° |
| 2026-04-26 13:15 | 35.11667 | 29.57466 | 36906 ft | 501 kts | 137° |
| 2026-04-26 13:16 | 35.06686 | 29.63402 | 37017 ft | 499 kts | 137° |
| 2026-04-26 13:16 | 35.04199 | 29.66362 | 36914 ft | 497 kts | 137° |
| 2026-04-26 13:16 | 35.01727 | 29.69301 | 36912 ft | 496 kts | 137° |
| 2026-04-26 13:17 | 34.94318 | 29.78095 | 36907 ft | 501 kts | 137° |
| 2026-04-26 13:18 | 34.86846 | 29.86942 | 36904 ft | 498 kts | 137° |
| 2026-04-26 13:19 | 34.79409 | 29.95721 | 36909 ft | 499 kts | 137° |
| 2026-04-26 13:19 | 34.74331 | 30.01469 | 36915 ft | 496 kts | 142° |
| 2026-04-26 13:20 | 34.69027 | 30.06847 | 36917 ft | 498 kts | 142° |
| 2026-04-26 13:20 | 34.63708 | 30.12219 | 36915 ft | 497 kts | 143° |
| 2026-04-26 13:21 | 34.58394 | 30.17579 | 36924 ft | 498 kts | 143° |
| 2026-04-26 13:21 | 34.53049 | 30.22961 | 36922 ft | 497 kts | 142° |
| 2026-04-26 13:22 | 34.47751 | 30.28288 | 36921 ft | 499 kts | 143° |
| 2026-04-26 13:22 | 34.42409 | 30.33650 | 36931 ft | 500 kts | 143° |
| 2026-04-26 13:23 | 34.37072 | 30.38998 | 36929 ft | 499 kts | 143° |
| 2026-04-26 13:23 | 34.31698 | 30.44374 | 36963 ft | 500 kts | 143° |
| 2026-04-26 13:24 | 34.26406 | 30.49660 | 36928 ft | 498 kts | 143° |
| 2026-04-26 13:24 | 34.21035 | 30.55014 | 36929 ft | 499 kts | 143° |
| 2026-04-26 13:25 | 34.15699 | 30.60326 | 36933 ft | 499 kts | 143° |
| 2026-04-26 13:25 | 34.10313 | 30.65677 | 36926 ft | 500 kts | 144° |
| 2026-04-26 13:26 | 34.04960 | 30.70988 | 36920 ft | 500 kts | 144° |
| 2026-04-26 13:26 | 33.99626 | 30.76270 | 36917 ft | 498 kts | 144° |
| 2026-04-26 13:27 | 33.94276 | 30.81559 | 36919 ft | 499 kts | 144° |
| 2026-04-26 13:27 | 33.88880 | 30.86885 | 36922 ft | 498 kts | 144° |
| 2026-04-26 13:28 | 33.83502 | 30.92183 | 36929 ft | 502 kts | 145° |
| 2026-04-26 13:28 | 33.78101 | 30.97495 | 36930 ft | 501 kts | 144° |
| 2026-04-26 13:29 | 33.72723 | 31.02777 | 36921 ft | 503 kts | 145° |
| 2026-04-26 13:29 | 33.67303 | 31.08089 | 36920 ft | 504 kts | 145° |
| 2026-04-26 13:30 | 33.61851 | 31.13426 | 36919 ft | 502 kts | 145° |
| 2026-04-26 13:30 | 33.56459 | 31.18694 | 36922 ft | 504 kts | 145° |
| 2026-04-26 13:31 | 33.50998 | 31.24021 | 36924 ft | 504 kts | 146° |
| 2026-04-26 13:31 | 33.45572 | 31.29305 | 36921 ft | 503 kts | 146° |
| 2026-04-26 13:32 | 33.40128 | 31.34598 | 36926 ft | 504 kts | 146° |
| 2026-04-26 13:32 | 33.34695 | 31.39870 | 36932 ft | 506 kts | 146° |
| 2026-04-26 13:33 | 33.29223 | 31.45173 | 36942 ft | 504 kts | 146° |
| 2026-04-26 13:33 | 33.23774 | 31.50443 | 36948 ft | 506 kts | 146° |
| 2026-04-26 13:34 | 33.18286 | 31.55742 | 36939 ft | 507 kts | 146° |
| 2026-04-26 13:34 | 33.12840 | 31.60994 | 36927 ft | 505 kts | 146° |
| 2026-04-26 13:35 | 33.07351 | 31.66276 | 36922 ft | 507 kts | 147° |
| 2026-04-26 13:35 | 33.01833 | 31.71578 | 36930 ft | 510 kts | 147° |
| 2026-04-26 13:36 | 32.96303 | 31.76885 | 36921 ft | 507 kts | 147° |
| 2026-04-26 13:36 | 32.90799 | 31.82155 | 36923 ft | 509 kts | 147° |
| 2026-04-26 13:37 | 32.85266 | 31.87446 | 36929 ft | 510 kts | 147° |
| 2026-04-26 13:37 | 32.79744 | 31.92717 | 36929 ft | 511 kts | 148° |
| 2026-04-26 13:38 | 32.74214 | 31.97988 | 36939 ft | 511 kts | 147° |
| 2026-04-26 13:38 | 32.68686 | 32.03248 | 36941 ft | 511 kts | 148° |
| 2026-04-26 13:39 | 32.63137 | 32.08519 | 36939 ft | 513 kts | 148° |
| 2026-04-26 13:39 | 32.57404 | 32.13483 | 36931 ft | 507 kts | 151° |
| 2026-04-26 13:40 | 32.51679 | 32.18295 | 36942 ft | 509 kts | 151° |
| 2026-04-26 13:40 | 32.45912 | 32.23158 | 36944 ft | 506 kts | 152° |
| 2026-04-26 13:41 | 32.40189 | 32.27985 | 36943 ft | 509 kts | 151° |
| 2026-04-26 13:41 | 32.34415 | 32.32856 | 36945 ft | 507 kts | 152° |
| 2026-04-26 13:42 | 32.28683 | 32.37687 | 36936 ft | 509 kts | 152° |
| 2026-04-26 13:42 | 32.22883 | 32.42568 | 36933 ft | 511 kts | 152° |
| 2026-04-26 13:43 | 32.17109 | 32.47422 | 36954 ft | 511 kts | 152° |
| 2026-04-26 13:43 | 32.11313 | 32.52289 | 36955 ft | 510 kts | 152° |
| 2026-04-26 13:44 | 32.05526 | 32.57138 | 36932 ft | 510 kts | 152° |
| 2026-04-26 13:44 | 31.99755 | 32.61969 | 36930 ft | 509 kts | 152° |
| 2026-04-26 13:45 | 31.93967 | 32.66805 | 36922 ft | 511 kts | 153° |
| 2026-04-26 13:45 | 31.88170 | 32.71642 | 36926 ft | 509 kts | 153° |
| 2026-04-26 13:46 | 31.82368 | 32.76473 | 36842 ft | 511 kts | 153° |
| 2026-04-26 13:46 | 31.76575 | 32.81290 | 36925 ft | 511 kts | 153° |
| 2026-04-26 13:47 | 31.70727 | 32.86145 | 36929 ft | 515 kts | 153° |
| 2026-04-26 13:47 | 31.64920 | 32.90962 | 36930 ft | 511 kts | 153° |
| 2026-04-26 13:48 | 31.59071 | 32.95801 | 36932 ft | 517 kts | 153° |
| 2026-04-26 13:48 | 31.53191 | 33.00661 | 36931 ft | 514 kts | 153° |
| 2026-04-26 13:49 | 31.47370 | 33.05466 | 36932 ft | 511 kts | 154° |
| 2026-04-26 13:49 | 31.41567 | 33.10244 | 36968 ft | 517 kts | 153° |
| 2026-04-26 13:50 | 31.35641 | 33.14903 | 36930 ft | 503 kts | 160° |
| 2026-04-26 13:50 | 31.29464 | 33.18837 | 36934 ft | 505 kts | 161° |
| 2026-04-26 13:51 | 31.23299 | 33.22727 | 36946 ft | 502 kts | 161° |
| 2026-04-26 13:51 | 31.17172 | 33.26586 | 36936 ft | 501 kts | 161° |
| 2026-04-26 13:52 | 31.11002 | 33.30465 | 36937 ft | 504 kts | 161° |
| 2026-04-26 13:52 | 31.04860 | 33.34327 | 36935 ft | 500 kts | 161° |
| 2026-04-26 13:53 | 30.98709 | 33.38183 | 36940 ft | 503 kts | 161° |
| 2026-04-26 13:53 | 30.92572 | 33.42026 | 36940 ft | 504 kts | 161° |
| 2026-04-26 13:54 | 30.86371 | 33.45906 | 36969 ft | 505 kts | 161° |
| 2026-04-26 13:54 | 30.80189 | 33.49768 | 36972 ft | 503 kts | 161° |
| 2026-04-26 13:55 | 30.71946 | 33.54905 | 36963 ft | 506 kts | 161° |
| 2026-04-26 13:56 | 30.61625 | 33.61328 | 36913 ft | 506 kts | 161° |
| 2026-04-26 13:56 | 30.55447 | 33.65166 | 36960 ft | 503 kts | 162° |
| 2026-04-26 13:57 | 30.49260 | 33.69001 | 36933 ft | 506 kts | 162° |
| 2026-04-26 13:57 | 30.43054 | 33.72843 | 36936 ft | 506 kts | 162° |
| 2026-04-26 13:58 | 30.36868 | 33.76669 | 36938 ft | 502 kts | 162° |
| 2026-04-26 13:58 | 30.30726 | 33.80463 | 36937 ft | 501 kts | 162° |
| 2026-04-26 13:59 | 30.24511 | 33.84289 | 36942 ft | 505 kts | 162° |
| 2026-04-26 13:59 | 30.18336 | 33.88092 | 36947 ft | 506 kts | 162° |
| 2026-04-26 14:00 | 30.05911 | 33.95723 | 36950 ft | 508 kts | 162° |
| 2026-04-26 14:01 | 29.99672 | 33.99547 | 36950 ft | 508 kts | 162° |
| 2026-04-26 14:01 | 29.93402 | 34.03387 | 36954 ft | 506 kts | 163° |
| 2026-04-26 14:02 | 29.87213 | 34.07171 | 36970 ft | 504 kts | 163° |
| 2026-04-26 14:02 | 29.80964 | 34.10980 | 36982 ft | 511 kts | 163° |
| 2026-04-26 14:03 | 29.74714 | 34.14792 | 36982 ft | 506 kts | 163° |
| 2026-04-26 14:03 | 29.68698 | 34.19266 | 36988 ft | 527 kts | 148° |
| 2026-04-26 14:03 | 29.66084 | 34.22244 | 37000 ft | 538 kts | 140° |
| 2026-04-26 14:04 | 29.63779 | 34.25729 | 37006 ft | 554 kts | 130° |
| 2026-04-26 14:04 | 29.61875 | 34.29604 | 37005 ft | 567 kts | 122° |
| 2026-04-26 14:04 | 29.60444 | 34.33789 | 37004 ft | 570 kts | 112° |
| 2026-04-26 14:05 | 29.59156 | 34.42915 | 37023 ft | 587 kts | 95° |
| 2026-04-26 14:05 | 29.57981 | 34.52023 | 37025 ft | 573 kts | 112° |
| 2026-04-26 14:06 | 29.54847 | 34.60309 | 37025 ft | 563 kts | 129° |
| 2026-04-26 14:06 | 29.52631 | 34.63964 | 37031 ft | 552 kts | 137° |
| 2026-04-26 14:06 | 29.50303 | 34.67453 | 36993 ft | 554 kts | 131° |
| 2026-04-26 14:07 | 29.46855 | 34.75442 | 36989 ft | 572 kts | 115° |
| 2026-04-26 14:07 | 29.44579 | 34.84267 | 36945 ft | 577 kts | 109° |
| 2026-04-26 14:08 | 29.42876 | 34.93256 | 36910 ft | 582 kts | 100° |
| 2026-04-26 14:08 | 29.42899 | 35.02541 | 36892 ft | 590 kts | 82° |
| 2026-04-26 14:09 | 29.44753 | 35.11677 | 36935 ft | 591 kts | 75° |
| 2026-04-26 14:09 | 29.46910 | 35.20784 | 36986 ft | 592 kts | 74° |
| 2026-04-26 14:10 | 29.49039 | 35.29837 | 37015 ft | 591 kts | 75° |
| 2026-04-26 14:10 | 29.51162 | 35.38929 | 37031 ft | 590 kts | 74° |
| 2026-04-26 14:11 | 29.54347 | 35.52590 | 37046 ft | 594 kts | 74° |
| 2026-04-26 14:11 | 29.56519 | 35.61716 | 37048 ft | 591 kts | 73° |
| 2026-04-26 14:12 | 29.58667 | 35.70775 | 37019 ft | 591 kts | 73° |
| 2026-04-26 14:12 | 29.60823 | 35.79905 | 37022 ft | 592 kts | 75° |
| 2026-04-26 14:13 | 29.63321 | 35.93802 | 37030 ft | 593 kts | 79° |
| 2026-04-26 14:14 | 29.64778 | 36.03063 | 37027 ft | 590 kts | 80° |
| 2026-04-26 14:14 | 29.66250 | 36.12328 | 37026 ft | 593 kts | 80° |
| 2026-04-26 14:15 | 29.67739 | 36.21659 | 37025 ft | 592 kts | 80° |
| 2026-04-26 14:15 | 29.69221 | 36.30944 | 37008 ft | 591 kts | 80° |
| 2026-04-26 14:16 | 29.70706 | 36.40239 | 37029 ft | 594 kts | 79° |
| 2026-04-26 14:16 | 29.72210 | 36.49522 | 37042 ft | 593 kts | 79° |
| 2026-04-26 14:17 | 29.73707 | 36.58788 | 37048 ft | 594 kts | 79° |
| 2026-04-26 14:17 | 29.74548 | 36.68200 | 37042 ft | 589 kts | 94° |
| 2026-04-26 14:18 | 29.73412 | 36.77481 | 37052 ft | 585 kts | 107° |
| 2026-04-26 14:18 | 29.71636 | 36.86533 | 37047 ft | 583 kts | 108° |
| 2026-04-26 14:19 | 29.69816 | 36.95676 | 37054 ft | 584 kts | 107° |
| 2026-04-26 14:19 | 29.68000 | 37.04760 | 37061 ft | 583 kts | 107° |
| 2026-04-26 14:20 | 29.66184 | 37.13799 | 37064 ft | 586 kts | 108° |
| 2026-04-26 14:20 | 29.64358 | 37.22854 | 37064 ft | 582 kts | 108° |
| 2026-04-26 14:21 | 29.62523 | 37.31913 | 37062 ft | 583 kts | 108° |
| 2026-04-26 14:21 | 29.60683 | 37.40966 | 37056 ft | 581 kts | 108° |
| 2026-04-26 14:22 | 29.58842 | 37.49977 | 37059 ft | 585 kts | 108° |
| 2026-04-26 14:22 | 29.56986 | 37.59040 | 37051 ft | 583 kts | 107° |
| 2026-04-26 14:23 | 29.55132 | 37.68059 | 37021 ft | 581 kts | 109° |
| 2026-04-26 14:23 | 29.53270 | 37.77080 | 37000 ft | 583 kts | 108° |
| 2026-04-26 14:24 | 29.51397 | 37.86129 | 36983 ft | 582 kts | 108° |
| 2026-04-26 14:24 | 29.49517 | 37.95166 | 36976 ft | 584 kts | 109° |
| 2026-04-26 14:25 | 29.47720 | 38.04220 | 36988 ft | 586 kts | 105° |
| 2026-04-26 14:25 | 29.46124 | 38.13369 | 36990 ft | 584 kts | 105° |
| 2026-04-26 14:26 | 29.44526 | 38.22464 | 36991 ft | 584 kts | 106° |
| 2026-04-26 14:26 | 29.42910 | 38.31574 | 36997 ft | 585 kts | 105° |
| 2026-04-26 14:27 | 29.41283 | 38.40684 | 37000 ft | 583 kts | 105° |
| 2026-04-26 14:27 | 29.39657 | 38.49741 | 37008 ft | 583 kts | 105° |
| 2026-04-26 14:28 | 29.38021 | 38.58801 | 37010 ft | 582 kts | 105° |
| 2026-04-26 14:28 | 29.36381 | 38.67849 | 36990 ft | 581 kts | 107° |
| 2026-04-26 14:29 | 29.34742 | 38.76846 | 36987 ft | 580 kts | 107° |
| 2026-04-26 14:29 | 29.33086 | 38.85901 | 36998 ft | 578 kts | 107° |
| 2026-04-26 14:30 | 29.31368 | 38.94915 | 37002 ft | 580 kts | 108° |
| 2026-04-26 14:30 | 29.29498 | 39.03796 | 37002 ft | 577 kts | 108° |
| 2026-04-26 14:31 | 29.27610 | 39.12732 | 37003 ft | 578 kts | 108° |
| 2026-04-26 14:31 | 29.25719 | 39.21686 | 37011 ft | 577 kts | 108° |
| 2026-04-26 14:32 | 29.23829 | 39.30620 | 37021 ft | 579 kts | 108° |
| 2026-04-26 14:32 | 29.21942 | 39.39516 | 37037 ft | 580 kts | 108° |
| 2026-04-26 14:33 | 29.20030 | 39.48504 | 37055 ft | 579 kts | 108° |
| 2026-04-26 14:33 | 29.18138 | 39.57376 | 37061 ft | 578 kts | 108° |
| 2026-04-26 14:34 | 29.16210 | 39.66380 | 37048 ft | 580 kts | 108° |
| 2026-04-26 14:34 | 29.14299 | 39.75282 | 37023 ft | 576 kts | 108° |
| 2026-04-26 14:35 | 29.12378 | 39.84189 | 37018 ft | 580 kts | 108° |
| 2026-04-26 14:35 | 29.10477 | 39.93110 | 37006 ft | 579 kts | 105° |
| 2026-04-26 14:36 | 29.09055 | 40.02185 | 37016 ft | 583 kts | 103° |
| 2026-04-26 14:36 | 29.07657 | 40.11306 | 37021 ft | 582 kts | 104° |
| 2026-04-26 14:37 | 29.06238 | 40.20393 | 37022 ft | 582 kts | 104° |
| 2026-04-26 14:37 | 29.04807 | 40.29447 | 37024 ft | 581 kts | 104° |
| 2026-04-26 14:38 | 29.03364 | 40.38498 | 37025 ft | 582 kts | 104° |
| 2026-04-26 14:38 | 29.01905 | 40.47581 | 37026 ft | 581 kts | 104° |
| 2026-04-26 14:39 | 29.00436 | 40.56674 | 37022 ft | 581 kts | 104° |
| 2026-04-26 14:39 | 28.98973 | 40.65684 | 37023 ft | 582 kts | 104° |
| 2026-04-26 14:40 | 28.97491 | 40.74767 | 36998 ft | 582 kts | 105° |
| 2026-04-26 14:40 | 28.96005 | 40.83826 | 36996 ft | 583 kts | 104° |
| 2026-04-26 14:41 | 28.94516 | 40.92865 | 36995 ft | 581 kts | 105° |
| 2026-04-26 14:41 | 28.93012 | 41.01957 | 36997 ft | 582 kts | 105° |
| 2026-04-26 14:42 | 28.91516 | 41.10957 | 36996 ft | 582 kts | 104° |
| 2026-04-26 14:42 | 28.90000 | 41.20039 | 36998 ft | 581 kts | 104° |
| 2026-04-26 14:43 | 28.88488 | 41.29062 | 37002 ft | 582 kts | 105° |
| 2026-04-26 14:43 | 28.86968 | 41.38093 | 37007 ft | 582 kts | 104° |
| 2026-04-26 14:44 | 28.85434 | 41.47164 | 37007 ft | 581 kts | 104° |
| 2026-04-26 14:44 | 28.83906 | 41.56162 | 37009 ft | 581 kts | 104° |
| 2026-04-26 14:45 | 28.82357 | 41.65254 | 37001 ft | 581 kts | 105° |
| 2026-04-26 14:45 | 28.80821 | 41.74225 | 36977 ft | 581 kts | 105° |
| 2026-04-26 14:46 | 28.79270 | 41.83249 | 36974 ft | 581 kts | 105° |
| 2026-04-26 14:46 | 28.77713 | 41.92263 | 36977 ft | 581 kts | 105° |
| 2026-04-26 14:47 | 28.76154 | 42.01261 | 36972 ft | 580 kts | 105° |
| 2026-04-26 14:47 | 28.74590 | 42.10247 | 36976 ft | 580 kts | 105° |
| 2026-04-26 14:48 | 28.73018 | 42.19237 | 36973 ft | 580 kts | 105° |
| 2026-04-26 14:48 | 28.71436 | 42.28251 | 36978 ft | 580 kts | 105° |
| 2026-04-26 14:49 | 28.69845 | 42.37281 | 36977 ft | 580 kts | 105° |
| 2026-04-26 14:49 | 28.68261 | 42.46235 | 36977 ft | 580 kts | 104° |
| 2026-04-26 14:50 | 28.66663 | 42.55231 | 36982 ft | 579 kts | 104° |
| 2026-04-26 14:50 | 28.65065 | 42.64192 | 36991 ft | 579 kts | 104° |
| 2026-04-26 14:51 | 28.63394 | 42.73114 | 36968 ft | 578 kts | 107° |
| 2026-04-26 14:51 | 28.61576 | 42.81971 | 36969 ft | 577 kts | 107° |
| 2026-04-26 14:52 | 28.59758 | 42.90815 | 36963 ft | 577 kts | 107° |
| 2026-04-26 14:52 | 28.57926 | 42.99720 | 36968 ft | 577 kts | 107° |
| 2026-04-26 14:53 | 28.56106 | 43.08554 | 36972 ft | 574 kts | 107° |
| 2026-04-26 14:53 | 28.54279 | 43.17396 | 36969 ft | 576 kts | 107° |
| 2026-04-26 14:54 | 28.52462 | 43.26167 | 36969 ft | 573 kts | 106° |
| 2026-04-26 14:54 | 28.50635 | 43.34959 | 36965 ft | 573 kts | 107° |
| 2026-04-26 14:55 | 28.48800 | 43.43763 | 36964 ft | 572 kts | 106° |
| 2026-04-26 14:55 | 28.46956 | 43.52576 | 36964 ft | 572 kts | 107° |
| 2026-04-26 14:56 | 28.45115 | 43.61350 | 36960 ft | 570 kts | 106° |
| 2026-04-26 14:56 | 28.43272 | 43.70102 | 36938 ft | 571 kts | 107° |
| 2026-04-26 14:57 | 28.41424 | 43.78850 | 36936 ft | 568 kts | 107° |
| 2026-04-26 14:57 | 28.39587 | 43.87512 | 36933 ft | 568 kts | 107° |
| 2026-04-26 14:58 | 28.37771 | 43.96235 | 36933 ft | 569 kts | 107° |
| 2026-04-26 14:58 | 28.35957 | 44.04947 | 36931 ft | 568 kts | 106° |
| 2026-04-26 14:59 | 28.34132 | 44.13672 | 36953 ft | 568 kts | 107° |
| 2026-04-26 14:59 | 28.32310 | 44.22355 | 36948 ft | 568 kts | 106° |
| 2026-04-26 15:00 | 28.30471 | 44.31089 | 36945 ft | 566 kts | 106° |
| 2026-04-26 15:00 | 28.28637 | 44.39767 | 36942 ft | 568 kts | 107° |
| 2026-04-26 15:01 | 28.26790 | 44.48472 | 36942 ft | 568 kts | 107° |
| 2026-04-26 15:01 | 28.24946 | 44.57142 | 36940 ft | 567 kts | 107° |
| 2026-04-26 15:02 | 28.23095 | 44.65811 | 36938 ft | 567 kts | 107° |
| 2026-04-26 15:02 | 28.21238 | 44.74482 | 36920 ft | 566 kts | 107° |
| 2026-04-26 15:03 | 28.19377 | 44.83141 | 36930 ft | 567 kts | 107° |
| 2026-04-26 15:03 | 28.17509 | 44.91803 | 36940 ft | 568 kts | 107° |
| 2026-04-26 15:04 | 28.15629 | 45.00494 | 36938 ft | 565 kts | 107° |
| 2026-04-26 15:04 | 28.12979 | 45.08779 | 36948 ft | 559 kts | 123° |
| 2026-04-26 15:05 | 28.09109 | 45.16293 | 36948 ft | 554 kts | 127° |
| 2026-04-26 15:05 | 28.05138 | 45.23759 | 36949 ft | 551 kts | 127° |
| 2026-04-26 15:06 | 28.01152 | 45.31213 | 36959 ft | 556 kts | 127° |
| 2026-04-26 15:06 | 27.97184 | 45.38614 | 36963 ft | 553 kts | 127° |
| 2026-04-26 15:07 | 27.91164 | 45.49805 | 36958 ft | 553 kts | 127° |
| 2026-04-26 15:07 | 27.87739 | 45.57696 | 36968 ft | 565 kts | 112° |
| 2026-04-26 15:08 | 27.85804 | 45.66313 | 36950 ft | 570 kts | 106° |
| 2026-04-26 15:08 | 27.84034 | 45.75037 | 36949 ft | 572 kts | 106° |
| 2026-04-26 15:09 | 27.82254 | 45.83740 | 36941 ft | 572 kts | 106° |
| 2026-04-26 15:09 | 27.80444 | 45.92529 | 36950 ft | 572 kts | 105° |
| 2026-04-26 15:10 | 27.78943 | 45.99784 | 36937 ft | 570 kts | 105° |
| 2026-04-26 15:10 | 27.76841 | 46.09894 | 36941 ft | 571 kts | 106° |
| 2026-04-26 15:11 | 27.75016 | 46.18635 | 36941 ft | 573 kts | 105° |
| 2026-04-26 15:11 | 27.73181 | 46.27407 | 36939 ft | 572 kts | 106° |
| 2026-04-26 15:12 | 27.71365 | 46.36113 | 36941 ft | 576 kts | 106° |
| 2026-04-26 15:12 | 27.69541 | 46.44835 | 36957 ft | 573 kts | 106° |
| 2026-04-26 15:13 | 27.67696 | 46.53617 | 36951 ft | 574 kts | 105° |
| 2026-04-26 15:13 | 27.65855 | 46.62354 | 36947 ft | 572 kts | 106° |
| 2026-04-26 15:14 | 27.64016 | 46.71053 | 36930 ft | 575 kts | 106° |
| 2026-04-26 15:14 | 27.62166 | 46.79773 | 36932 ft | 574 kts | 106° |
| 2026-04-26 15:15 | 27.60303 | 46.88519 | 36940 ft | 576 kts | 106° |
| 2026-04-26 15:15 | 27.58442 | 46.97237 | 36931 ft | 572 kts | 107° |
| 2026-04-26 15:16 | 27.56579 | 47.05931 | 36940 ft | 574 kts | 106° |
| 2026-04-26 15:16 | 27.54698 | 47.14682 | 36931 ft | 575 kts | 106° |
| 2026-04-26 15:17 | 27.53129 | 47.21961 | 36929 ft | 572 kts | 106° |
| 2026-04-26 15:17 | 27.50934 | 47.32105 | 36949 ft | 575 kts | 106° |
| 2026-04-26 15:18 | 27.49033 | 47.40864 | 36937 ft | 573 kts | 105° |
| 2026-04-26 15:18 | 27.47151 | 47.49506 | 36945 ft | 573 kts | 106° |
| 2026-04-26 15:19 | 27.45244 | 47.58237 | 36941 ft | 574 kts | 106° |
| 2026-04-26 15:19 | 27.43181 | 47.66869 | 36936 ft | 569 kts | 111° |
| 2026-04-26 15:20 | 27.40734 | 47.75321 | 36925 ft | 568 kts | 111° |
| 2026-04-26 15:20 | 27.38296 | 47.83763 | 36927 ft | 570 kts | 111° |
| 2026-04-26 15:21 | 27.35866 | 47.92214 | 36924 ft | 568 kts | 111° |
| 2026-04-26 15:21 | 27.33445 | 48.00645 | 36928 ft | 569 kts | 110° |
| 2026-04-26 15:22 | 27.31018 | 48.09097 | 36929 ft | 567 kts | 110° |
| 2026-04-26 15:22 | 27.28753 | 48.17553 | 36926 ft | 567 kts | 109° |
| 2026-04-26 15:23 | 27.26512 | 48.26057 | 36923 ft | 568 kts | 109° |
| 2026-04-26 15:23 | 27.24274 | 48.34507 | 36918 ft | 567 kts | 109° |
| 2026-04-26 15:24 | 27.22015 | 48.43003 | 36912 ft | 567 kts | 109° |
| 2026-04-26 15:24 | 27.19759 | 48.51454 | 36906 ft | 566 kts | 109° |
| 2026-04-26 15:25 | 27.17491 | 48.59927 | 36906 ft | 567 kts | 109° |
| 2026-04-26 15:25 | 27.15225 | 48.68367 | 36890 ft | 567 kts | 109° |
| 2026-04-26 15:26 | 27.12959 | 48.76785 | 36890 ft | 567 kts | 109° |
| 2026-04-26 15:26 | 27.10680 | 48.85273 | 36886 ft | 567 kts | 107° |
| 2026-04-26 15:27 | 27.09554 | 48.94027 | 36893 ft | 570 kts | 94° |
| 2026-04-26 15:27 | 27.09156 | 49.02854 | 36894 ft | 570 kts | 93° |
| 2026-04-26 15:28 | 27.08758 | 49.11744 | 36901 ft | 570 kts | 92° |
| 2026-04-26 15:28 | 27.08352 | 49.20595 | 36899 ft | 569 kts | 92° |
| 2026-04-26 15:29 | 27.07938 | 49.29431 | 36902 ft | 568 kts | 93° |
| 2026-04-26 15:30 | 27.07073 | 49.47118 | 36900 ft | 566 kts | 92° |
| 2026-04-26 15:30 | 27.06644 | 49.55913 | 36904 ft | 567 kts | 93° |
| 2026-04-26 15:31 | 27.05988 | 49.69121 | 36886 ft | 566 kts | 93° |
| 2026-04-26 15:32 | 27.05393 | 49.80865 | 36886 ft | 566 kts | 93° |
| 2026-04-26 15:32 | 27.04865 | 49.91154 | 36889 ft | 565 kts | 93° |
| 2026-04-26 15:33 | 27.04454 | 49.99886 | 36884 ft | 563 kts | 89° |
| 2026-04-26 15:33 | 27.04560 | 50.08701 | 36891 ft | 563 kts | 88° |
| 2026-04-26 15:34 | 27.04684 | 50.17462 | 36893 ft | 564 kts | 88° |
| 2026-04-26 15:34 | 27.04788 | 50.26213 | 36894 ft | 564 kts | 88° |
| 2026-04-26 15:35 | 27.04616 | 50.34954 | 36898 ft | 563 kts | 97° |
| 2026-04-26 15:35 | 27.02620 | 50.43394 | 36901 ft | 559 kts | 114° |
| 2026-04-26 15:36 | 26.99610 | 50.51456 | 36902 ft | 559 kts | 115° |
| 2026-04-26 15:36 | 26.96584 | 50.59438 | 36901 ft | 557 kts | 115° |
| 2026-04-26 15:37 | 26.93550 | 50.67413 | 36887 ft | 558 kts | 116° |
| 2026-04-26 15:37 | 26.90519 | 50.75366 | 36888 ft | 557 kts | 116° |
| 2026-04-26 15:38 | 26.87488 | 50.83300 | 36889 ft | 555 kts | 116° |
| 2026-04-26 15:38 | 26.84450 | 50.91237 | 36888 ft | 555 kts | 115° |
| 2026-04-26 15:39 | 26.81404 | 50.99194 | 36887 ft | 555 kts | 115° |
| 2026-04-26 15:39 | 26.78890 | 51.05801 | 36891 ft | 556 kts | 115° |
| 2026-04-26 15:40 | 26.75579 | 51.15134 | 36893 ft | 557 kts | 111° |
| 2026-04-26 15:40 | 26.73011 | 51.23296 | 36888 ft | 555 kts | 111° |
| 2026-04-26 15:41 | 26.70438 | 51.31401 | 36888 ft | 556 kts | 111° |
| 2026-04-26 15:41 | 26.67844 | 51.39514 | 36886 ft | 555 kts | 111° |
| 2026-04-26 15:42 | 26.65244 | 51.47611 | 36882 ft | 555 kts | 111° |
| 2026-04-26 15:42 | 26.62636 | 51.55747 | 36888 ft | 555 kts | 111° |
| 2026-04-26 15:43 | 26.60040 | 51.63817 | 36883 ft | 554 kts | 111° |
| 2026-04-26 15:44 | 26.56133 | 51.75921 | 36867 ft | 554 kts | 112° |
| 2026-04-26 15:44 | 26.52210 | 51.88039 | 36869 ft | 553 kts | 111° |
| 2026-04-26 15:45 | 26.48205 | 52.00102 | 36880 ft | 553 kts | 112° |
| 2026-04-26 15:46 | 26.44194 | 52.12125 | 36880 ft | 553 kts | 112° |
| 2026-04-26 15:46 | 26.41948 | 52.18842 | 36878 ft | 553 kts | 112° |
| 2026-04-26 15:47 | 26.37474 | 52.32184 | 36884 ft | 553 kts | 112° |
| 2026-04-26 15:48 | 26.34763 | 52.40197 | 36876 ft | 553 kts | 114° |
| 2026-04-26 15:48 | 26.31733 | 52.48093 | 36880 ft | 552 kts | 115° |
| 2026-04-26 15:49 | 26.28695 | 52.55933 | 36875 ft | 552 kts | 115° |
| 2026-04-26 15:49 | 26.25673 | 52.63750 | 36875 ft | 552 kts | 115° |
| 2026-04-26 15:50 | 26.22650 | 52.71592 | 36856 ft | 550 kts | 115° |
| 2026-04-26 15:50 | 26.19646 | 52.79429 | 36857 ft | 551 kts | 115° |
| 2026-04-26 15:51 | 26.16634 | 52.87278 | 36850 ft | 551 kts | 115° |
| 2026-04-26 15:51 | 26.13634 | 52.95081 | 36850 ft | 552 kts | 115° |
| 2026-04-26 15:52 | 26.10621 | 53.02905 | 36852 ft | 552 kts | 115° |
| 2026-04-26 15:52 | 26.07680 | 53.10798 | 36845 ft | 550 kts | 112° |
| 2026-04-26 15:53 | 26.04819 | 53.18642 | 36850 ft | 552 kts | 113° |
| 2026-04-26 15:53 | 26.01941 | 53.26494 | 36842 ft | 549 kts | 111° |
| 2026-04-26 15:54 | 25.99054 | 53.34391 | 36815 ft | 546 kts | 112° |
| 2026-04-26 15:54 | 25.97634 | 53.38251 | 36585 ft | 545 kts | 112° |
| 2026-04-26 15:54 | 25.96182 | 53.42175 | 36156 ft | 548 kts | 112° |
| 2026-04-26 15:54 | 25.94743 | 53.46059 | 35723 ft | 551 kts | 112° |
| 2026-04-26 15:55 | 25.93277 | 53.50003 | 35414 ft | 553 kts | 112° |
| 2026-04-26 15:55 | 25.91865 | 53.53998 | 35175 ft | 549 kts | 110° |
| 2026-04-26 15:55 | 25.90530 | 53.57896 | 34454 ft | 550 kts | 110° |
| 2026-04-26 15:55 | 25.89159 | 53.61897 | 33367 ft | 556 kts | 110° |
| 2026-04-26 15:56 | 25.87793 | 53.65889 | 32418 ft | 558 kts | 110° |
| 2026-04-26 15:56 | 25.86410 | 53.69918 | 31495 ft | 561 kts | 111° |
| 2026-04-26 15:56 | 25.85021 | 53.73948 | 30545 ft | 564 kts | 111° |
| 2026-04-26 15:56 | 25.83618 | 53.78001 | 29901 ft | 559 kts | 112° |
| 2026-04-26 15:57 | 25.82229 | 53.82003 | 29327 ft | 553 kts | 112° |
| 2026-04-26 15:57 | 25.80857 | 53.85952 | 28720 ft | 547 kts | 112° |
| 2026-04-26 15:57 | 25.79393 | 53.89838 | 28057 ft | 541 kts | 117° |
| 2026-04-26 15:57 | 25.78197 | 53.92275 | 27628 ft | 535 kts | 123° |
| 2026-04-26 15:58 | 25.75318 | 53.96628 | 26788 ft | 523 kts | 134° |
| 2026-04-26 15:58 | 25.72768 | 53.99416 | 26170 ft | 513 kts | 143° |
| 2026-04-26 15:58 | 25.69929 | 54.01763 | 25530 ft | 502 kts | 151° |
| 2026-04-26 15:58 | 25.66915 | 54.03612 | 24900 ft | 492 kts | 159° |
| 2026-04-26 15:59 | 25.63755 | 54.05024 | 24276 ft | 482 kts | 164° |
| 2026-04-26 15:59 | 25.60618 | 54.06271 | 23660 ft | 476 kts | 165° |
| 2026-04-26 15:59 | 25.57493 | 54.07257 | 23053 ft | 466 kts | 172° |
| 2026-04-26 15:59 | 25.54319 | 54.08034 | 22447 ft | 460 kts | 172° |
| 2026-04-26 16:00 | 25.51203 | 54.08774 | 21847 ft | 454 kts | 172° |
| 2026-04-26 16:00 | 25.48137 | 54.09494 | 21245 ft | 449 kts | 172° |
| 2026-04-26 16:00 | 25.45093 | 54.10206 | 20649 ft | 443 kts | 172° |
| 2026-04-26 16:00 | 25.42109 | 54.10899 | 20060 ft | 438 kts | 172° |
| 2026-04-26 16:01 | 25.39118 | 54.11590 | 19459 ft | 433 kts | 171° |
| 2026-04-26 16:01 | 25.36195 | 54.12262 | 18872 ft | 428 kts | 171° |
| 2026-04-26 16:01 | 25.33270 | 54.12934 | 18298 ft | 422 kts | 171° |
| 2026-04-26 16:01 | 25.30448 | 54.13579 | 17792 ft | 415 kts | 171° |
| 2026-04-26 16:02 | 25.27630 | 54.14220 | 17239 ft | 410 kts | 171° |
| 2026-04-26 16:02 | 25.24831 | 54.14854 | 16665 ft | 406 kts | 171° |
| 2026-04-26 16:02 | 25.22058 | 54.15483 | 16093 ft | 403 kts | 170° |
| 2026-04-26 16:02 | 25.20255 | 54.15892 | 15716 ft | 400 kts | 170° |
| 2026-04-26 16:03 | 25.16615 | 54.16718 | 14951 ft | 396 kts | 170° |
| 2026-04-26 16:03 | 25.13951 | 54.17404 | 14507 ft | 390 kts | 163° |
| 2026-04-26 16:03 | 25.11515 | 54.18562 | 14479 ft | 380 kts | 153° |
| 2026-04-26 16:03 | 25.09220 | 54.20262 | 14345 ft | 400 kts | 142° |
| 2026-04-26 16:04 | 25.07252 | 54.22411 | 14178 ft | 403 kts | 131° |
| 2026-04-26 16:04 | 25.05669 | 54.24965 | 14002 ft | 404 kts | 119° |
| 2026-04-26 16:04 | 25.04559 | 54.27799 | 13830 ft | 405 kts | 108° |
| 2026-04-26 16:04 | 25.03909 | 54.30844 | 13656 ft | 404 kts | 101° |
| 2026-04-26 16:05 | 25.03406 | 54.33857 | 13482 ft | 403 kts | 100° |
| 2026-04-26 16:05 | 25.02902 | 54.36903 | 13187 ft | 401 kts | 100° |
| 2026-04-26 16:05 | 25.02404 | 54.39914 | 12878 ft | 397 kts | 100° |
| 2026-04-26 16:05 | 25.01911 | 54.42886 | 12569 ft | 396 kts | 100° |
| 2026-04-26 16:06 | 25.01415 | 54.45877 | 12260 ft | 395 kts | 100° |
| 2026-04-26 16:06 | 25.00925 | 54.48827 | 11962 ft | 393 kts | 100° |
| 2026-04-26 16:06 | 25.00434 | 54.51776 | 11657 ft | 393 kts | 100° |
| 2026-04-26 16:06 | 24.99952 | 54.54707 | 11333 ft | 388 kts | 97° |
| 2026-04-26 16:07 | 24.99477 | 54.57669 | 11025 ft | 388 kts | 98° |
| 2026-04-26 16:07 | 24.99005 | 54.60586 | 10726 ft | 389 kts | 99° |
| 2026-04-26 16:07 | 24.98522 | 54.63493 | 10417 ft | 386 kts | 99° |
| 2026-04-26 16:07 | 24.98030 | 54.66413 | 10092 ft | 384 kts | 100° |
| 2026-04-26 16:08 | 24.97534 | 54.69292 | 9777 ft | 380 kts | 100° |
| 2026-04-26 16:08 | 24.97002 | 54.72119 | 9463 ft | 378 kts | 101° |
| 2026-04-26 16:08 | 24.96637 | 54.74992 | 9169 ft | 377 kts | 94° |
| 2026-04-26 16:08 | 24.96389 | 54.77866 | 8869 ft | 376 kts | 95° |
| 2026-04-26 16:09 | 24.96124 | 54.80718 | 8596 ft | 375 kts | 95° |
| 2026-04-26 16:09 | 24.95846 | 54.83559 | 8401 ft | 374 kts | 95° |
| 2026-04-26 16:09 | 24.95515 | 54.86380 | 8232 ft | 372 kts | 101° |
| 2026-04-26 16:09 | 24.94719 | 54.89085 | 8068 ft | 373 kts | 114° |
| 2026-04-26 16:10 | 24.93470 | 54.91575 | 7964 ft | 370 kts | 120° |
| 2026-04-26 16:10 | 24.92135 | 54.94004 | 7986 ft | 371 kts | 121° |
| 2026-04-26 16:10 | 24.90804 | 54.96417 | 7977 ft | 358 kts | 121° |
| 2026-04-26 16:10 | 24.89540 | 54.98704 | 7987 ft | 343 kts | 121° |
| 2026-04-26 16:11 | 24.88315 | 55.00916 | 7973 ft | 338 kts | 121° |
| 2026-04-26 16:11 | 24.87102 | 55.03111 | 7976 ft | 336 kts | 121° |
| 2026-04-26 16:11 | 24.85897 | 55.05293 | 7986 ft | 321 kts | 121° |
| 2026-04-26 16:11 | 24.84758 | 55.07357 | 7799 ft | 311 kts | 121° |
| 2026-04-26 16:12 | 24.83655 | 55.09356 | 7507 ft | 306 kts | 121° |
| 2026-04-26 16:12 | 24.82556 | 55.11348 | 7180 ft | 303 kts | 121° |
| 2026-04-26 16:12 | 24.80377 | 55.15286 | 6563 ft | 297 kts | 121° |
| 2026-04-26 16:13 | 24.79316 | 55.17191 | 6262 ft | 294 kts | 121° |
| 2026-04-26 16:13 | 24.78250 | 55.19107 | 5955 ft | 291 kts | 120° |
| 2026-04-26 16:13 | 24.77199 | 55.20995 | 5649 ft | 288 kts | 120° |
| 2026-04-26 16:13 | 24.76146 | 55.22890 | 5342 ft | 286 kts | 120° |
| 2026-04-26 16:14 | 24.75117 | 55.24744 | 5014 ft | 282 kts | 120° |
| 2026-04-26 16:14 | 24.74121 | 55.26540 | 4735 ft | 271 kts | 119° |
| 2026-04-26 16:14 | 24.72216 | 55.29974 | 4133 ft | 253 kts | 118° |
| 2026-04-26 16:15 | 24.71316 | 55.31591 | 3900 ft | 242 kts | 118° |
| 2026-04-26 16:15 | 24.70465 | 55.33121 | 3690 ft | 231 kts | 118° |
| 2026-04-26 16:15 | 24.69642 | 55.34600 | 3457 ft | 222 kts | 118° |
| 2026-04-26 16:16 | 24.68328 | 55.37573 | 3309 ft | 215 kts | 89° |
| 2026-04-26 16:16 | 24.68600 | 55.39139 | 3308 ft | 207 kts | 56° |
| 2026-04-26 16:16 | 24.69487 | 55.40344 | 3295 ft | 201 kts | 35° |
| 2026-04-26 16:16 | 24.70569 | 55.41290 | 3256 ft | 197 kts | 28° |
| 2026-04-26 16:17 | 24.71712 | 55.42124 | 3214 ft | 196 kts | 24° |
| 2026-04-26 16:17 | 24.72957 | 55.42641 | 3208 ft | 189 kts | 360° |
| 2026-04-26 16:17 | 24.74207 | 55.42397 | 3197 ft | 182 kts | 328° |
| 2026-04-26 16:17 | 24.75211 | 55.41544 | 3182 ft | 182 kts | 311° |
| 2026-04-26 16:18 | 24.75996 | 55.40461 | 3149 ft | 182 kts | 303° |
| 2026-04-26 16:18 | 24.77359 | 55.38124 | 3059 ft | 181 kts | 299° |
| 2026-04-26 16:19 | 24.78646 | 55.35807 | 3009 ft | 176 kts | 298° |
| 2026-04-26 16:19 | 24.79295 | 55.34648 | 3008 ft | 176 kts | 299° |
| 2026-04-26 16:19 | 24.80568 | 55.32381 | 2981 ft | 163 kts | 300° |
| 2026-04-26 16:20 | 24.81133 | 55.31381 | 2789 ft | 143 kts | 301° |
| 2026-04-26 16:20 | 24.82115 | 55.29630 | 2468 ft | 131 kts | 301° |
| 2026-04-26 16:20 | 24.82599 | 55.28770 | 2310 ft | 130 kts | 302° |
| 2026-04-26 16:21 | 24.83058 | 55.27918 | 2141 ft | 130 kts | 301° |
| 2026-04-26 16:21 | 24.83537 | 55.27064 | 1946 ft | 131 kts | 303° |
| 2026-04-26 16:21 | 24.84014 | 55.26213 | 1786 ft | 133 kts | 303° |
| 2026-04-26 16:21 | 24.84516 | 55.25349 | 1606 ft | 133 kts | 302° |
| 2026-04-26 16:22 | 24.84999 | 55.24482 | 1418 ft | 135 kts | 302° |
| 2026-04-26 16:22 | 24.85500 | 55.23595 | 1232 ft | 136 kts | 302° |
| 2026-04-26 16:22 | 24.85995 | 55.22710 | 1052 ft | 137 kts | 301° |
| 2026-04-26 16:22 | 24.86496 | 55.21801 | 927 ft | 140 kts | 301° |
| 2026-04-26 16:23 | 24.87011 | 55.20892 | 770 ft | 140 kts | 301° |
| 2026-04-26 16:23 | 24.87519 | 55.19980 | 613 ft | 141 kts | 300° |
| 2026-04-26 16:23 | 24.88031 | 55.19059 | 415 ft | 140 kts | 300° |
| 2026-04-26 16:23 | 24.88535 | 55.18148 | 249 ft | 138 kts | 299° |
| 2026-04-26 16:24 | 24.89022 | 55.17262 | 157 ft | 122 kts | 302° |
| 2026-04-26 16:24 | 24.89400 | 55.16582 | 134 ft | 87 kts | 301° |
| 2026-04-26 16:24 | 24.89660 | 55.16110 | 127 ft | 59 kts | 300° |
| 2026-04-26 16:24 | 24.89776 | 55.15799 | 124 ft | 33 kts | 276° |
| 2026-04-26 16:25 | 24.89783 | 55.15617 | 123 ft | 17 kts | 271° |
| 2026-04-26 16:25 | 24.89785 | 55.15537 | 122 ft | 8 kts | 274° |
| 2026-04-26 16:25 | 24.89799 | 55.15459 | 121 ft | 12 kts | 286° |
| 2026-04-26 16:25 | 24.89845 | 55.15360 | 119 ft | 16 kts | 300° |
| 2026-04-26 16:26 | 24.89910 | 55.15242 | 118 ft | 18 kts | 303° |
| 2026-04-26 16:26 | 24.89979 | 55.15122 | 118 ft | 17 kts | 300° |
| 2026-04-26 16:26 | 24.89941 | 55.15015 | 116 ft | 17 kts | 208° |
| 2026-04-26 16:26 | 24.89836 | 55.14954 | 118 ft | 16 kts | 210° |
| 2026-04-26 16:27 | 24.89732 | 55.14886 | 117 ft | 17 kts | 211° |
| 2026-04-26 16:27 | 24.89635 | 55.14822 | 118 ft | 16 kts | 211° |
| 2026-04-26 16:27 | 24.89532 | 55.14753 | 118 ft | 17 kts | 211° |
| 2026-04-26 16:27 | 24.89429 | 55.14685 | 118 ft | 17 kts | 211° |
| 2026-04-26 16:28 | 24.89324 | 55.14616 | 118 ft | 16 kts | 210° |
| 2026-04-26 16:28 | 24.89238 | 55.14560 | 119 ft | 9 kts | 211° |
| 2026-04-26 16:28 | 24.89202 | 55.14549 | 118 ft | 4 kts | 164° |
| 2026-04-26 16:28 | 24.89179 | 55.14571 | 119 ft | 4 kts | 123° |
| 2026-04-26 16:29 | 24.89162 | 55.14601 | 118 ft | 4 kts | 121° |
| 2026-04-26 16:29 | 24.89150 | 55.14623 | 119 ft | 0 kts | 121° |
| 2026-04-26 16:29 | 24.89150 | 55.14624 | 119 ft | 0 kts | 121° |